createdAt,value
2023-02-16T00:00:52.060Z,73.96
2023-02-16T00:05:54.056Z,74.39
2023-02-16T00:11:14.606Z,74.54
2023-02-16T00:16:21.488Z,74.45
2023-02-16T00:21:23.489Z,74.85
2023-02-16T00:26:26.356Z,74.92
2023-02-16T00:31:33.481Z,75.04
2023-02-16T00:36:35.429Z,75.18
2023-02-16T00:41:53.884Z,75.22
2023-02-16T00:46:55.988Z,75.53
2023-02-16T00:51:58.490Z,75.52
2023-02-16T00:57:00.613Z,75.56
2023-02-16T01:02:02.897Z,75.82
2023-02-16T01:07:33.487Z,76.05
2023-02-16T01:12:35.442Z,75.63
2023-02-16T01:17:41.192Z,75.92
2023-02-16T01:22:43.210Z,76.04
2023-02-16T01:27:45.490Z,76.25
2023-02-16T01:32:52.081Z,76.44
2023-02-16T01:37:54.268Z,76.63
2023-02-16T01:43:03.599Z,76.79
2023-02-16T01:48:08.047Z,77.35
2023-02-16T01:53:22.630Z,76.95
2023-02-16T01:58:44.395Z,77.32
2023-02-16T02:04:14.116Z,77.67
2023-02-16T02:09:25.640Z,78.12
2023-02-16T02:14:31.776Z,78.10
2023-02-16T02:20:04.939Z,78.43
2023-02-16T02:25:24.255Z,78.46
2023-02-16T02:30:48.815Z,78.38
2023-02-16T02:36:15.237Z,78.62
2023-02-16T02:42:06.404Z,79.08
2023-02-16T02:47:17.223Z,79.13
2023-02-16T02:52:20.476Z,79.08
2023-02-16T02:57:52.419Z,79.43
2023-02-16T03:02:58.757Z,79.41
2023-02-16T03:08:06.577Z,79.89
2023-02-16T03:13:16.978Z,79.83
2023-02-16T03:18:37.685Z,80.06
2023-02-16T03:23:59.373Z,80.33
2023-02-16T03:29:22.779Z,80.29
2023-02-16T03:34:25.717Z,80.45
2023-02-16T03:39:29.074Z,80.55
2023-02-16T03:44:30.989Z,80.71
2023-02-16T03:49:32.889Z,80.94
2023-02-16T03:54:34.746Z,81.02
2023-02-16T03:59:36.676Z,80.87
2023-02-16T04:04:38.910Z,80.97
2023-02-16T04:09:40.954Z,80.95
2023-02-16T04:14:43.848Z,81.14
2023-02-16T04:19:46.026Z,80.55
2023-02-16T04:24:47.952Z,80.23
2023-02-16T04:29:50.276Z,80.14
2023-02-16T04:34:52.274Z,80.33
2023-02-16T04:39:54.383Z,80.38
2023-02-16T04:44:56.362Z,80.30
2023-02-16T04:49:58.421Z,80.51
2023-02-16T04:55:00.398Z,80.53
2023-02-16T05:00:02.420Z,81.01
2023-02-16T05:05:04.491Z,80.66
2023-02-16T05:10:07.131Z,80.79
2023-02-16T05:15:09.292Z,81.13
2023-02-16T05:20:12.136Z,81.14
2023-02-16T05:25:14.305Z,81.52
2023-02-16T05:30:16.340Z,81.52
2023-02-16T05:35:18.453Z,81.42
2023-02-16T05:40:20.597Z,81.48
2023-02-16T05:45:22.801Z,81.85
2023-02-16T05:50:24.683Z,82.00
2023-02-16T05:55:26.748Z,82.56
2023-02-16T06:00:28.842Z,82.04
2023-02-16T06:05:30.934Z,82.13
2023-02-16T06:10:32.949Z,82.18
2023-02-16T06:15:38.983Z,82.24
2023-02-16T06:20:41.876Z,82.14
2023-02-16T06:25:45.694Z,82.12
2023-02-16T06:30:47.740Z,82.11
2023-02-16T06:35:49.714Z,81.99
2023-02-16T06:40:53.126Z,82.10
2023-02-16T06:45:55.217Z,82.39
2023-02-16T06:50:57.194Z,82.34
2023-02-16T06:55:59.280Z,83.23
2023-02-16T07:01:01.191Z,82.97
2023-02-16T07:06:03.714Z,82.95
2023-02-16T07:11:06.183Z,82.86
2023-02-16T07:16:09.777Z,82.96
2023-02-16T07:21:12.103Z,82.58
2023-02-16T07:26:14.276Z,82.84
2023-02-16T07:31:17.700Z,83.01
2023-02-16T07:36:19.842Z,83.04
2023-02-16T07:41:22.458Z,82.90
2023-02-16T07:46:24.351Z,82.73
2023-02-16T07:51:28.856Z,82.82
2023-02-16T07:56:32.088Z,82.35
2023-02-16T08:01:35.346Z,82.07
2023-02-16T08:06:37.499Z,81.58
2023-02-16T08:11:39.439Z,81.56
2023-02-16T08:16:41.657Z,81.18
2023-02-16T08:21:47.451Z,80.42
2023-02-16T08:26:50.116Z,80.33
2023-02-16T08:31:53.561Z,80.79
2023-02-16T08:36:57.219Z,80.63
2023-02-16T08:42:01.428Z,80.35
2023-02-16T08:47:03.910Z,79.59
2023-02-16T08:52:06.050Z,79.06
2023-02-16T08:57:08.185Z,77.83
2023-02-16T09:02:12.238Z,77.04
2023-02-16T09:07:15.985Z,76.07
2023-02-16T09:12:18.260Z,73.74
2023-02-16T09:17:20.742Z,72.23
2023-02-16T09:22:22.865Z,70.52
2023-02-16T09:27:24.830Z,67.96
2023-02-16T09:32:30.294Z,64.67
2023-02-16T09:37:33.279Z,59.69
2023-02-16T09:42:41.034Z,56.52
2023-02-16T09:47:47.825Z,55.51
2023-02-16T09:52:54.501Z,53.20
2023-02-16T09:58:06.316Z,52.58
2023-02-16T10:03:26.241Z,51.23
2023-02-16T10:08:39.095Z,51.60
2023-02-16T10:13:47.281Z,50.46
2023-02-16T10:18:50.964Z,49.68
2023-02-16T10:23:58.123Z,49.17
2023-02-16T10:29:08.743Z,48.47
2023-02-16T10:34:35.353Z,47.90
2023-02-16T10:40:16.794Z,47.87
2023-02-16T10:45:47.718Z,46.90
2023-02-16T10:51:12.945Z,44.78
2023-02-16T10:56:39.471Z,45.59
2023-02-16T11:01:50.506Z,44.89
2023-02-16T11:07:16.171Z,45.42
2023-02-16T11:12:34.364Z,43.49
2023-02-16T11:17:55.879Z,44.14
2023-02-16T11:23:27.034Z,44.19
2023-02-16T11:28:49.464Z,46.39
2023-02-16T11:34:05.818Z,49.25
2023-02-16T11:39:17.626Z,49.20
2023-02-16T11:44:30.226Z,49.27
2023-02-16T11:49:41.131Z,48.53
2023-02-16T11:54:48.470Z,48.30
2023-02-16T11:59:50.751Z,49.95
2023-02-16T12:05:23.448Z,47.65
2023-02-16T12:10:32.791Z,45.53
2023-02-16T12:15:48.902Z,44.39
2023-02-16T12:21:07.029Z,44.94
2023-02-16T12:26:41.016Z,45.97
2023-02-16T12:32:01.423Z,44.23
2023-02-16T12:37:06.044Z,44.71
2023-02-16T12:42:46.851Z,41.92
2023-02-16T12:48:12.945Z,41.25
2023-02-16T12:53:14.924Z,41.49
2023-02-16T12:58:29.013Z,43.05
2023-02-16T13:03:39.954Z,43.34
2023-02-16T13:08:52.339Z,43.19
2023-02-16T13:13:59.085Z,41.11
2023-02-16T13:19:01.120Z,40.95
2023-02-16T13:24:24.695Z,40.99
2023-02-16T13:30:10.693Z,37.54
2023-02-16T13:35:19.312Z,38.70
2023-02-16T13:40:46.025Z,37.14
2023-02-16T13:45:48.676Z,39.72
2023-02-16T13:51:02.677Z,38.03
2023-02-16T13:56:31.033Z,37.77
2023-02-16T14:01:34.547Z,35.95
2023-02-16T14:06:39.921Z,35.23
2023-02-16T14:11:53.125Z,34.20
2023-02-16T14:16:55.096Z,35.48
2023-02-16T14:21:57.416Z,34.89
2023-02-16T14:27:09.721Z,28.97
2023-02-16T14:32:44.081Z,37.36
2023-02-16T14:38:18.366Z,34.10
2023-02-16T14:43:26.199Z,30.00
2023-02-16T14:48:53.042Z,32.72
2023-02-16T14:54:22.303Z,30.92
2023-02-16T14:59:32.690Z,31.54
2023-02-16T15:04:38.363Z,29.09
2023-02-16T15:09:42.518Z,30.41
2023-02-16T15:15:01.466Z,29.92
2023-02-16T15:20:29.492Z,31.50
2023-02-16T15:25:38.736Z,30.34
2023-02-16T15:30:42.492Z,30.66
2023-02-16T15:35:46.920Z,30.05
2023-02-16T15:40:56.673Z,31.31
2023-02-16T15:46:00.439Z,31.07
2023-02-16T15:51:08.300Z,30.34
2023-02-16T15:56:22.987Z,32.28
2023-02-16T16:01:33.296Z,31.88
2023-02-16T16:06:37.997Z,31.87
2023-02-16T16:11:39.911Z,32.25
2023-02-16T16:16:42.941Z,32.72
2023-02-16T16:21:52.107Z,33.43
2023-02-16T16:26:56.172Z,32.88
2023-02-16T16:31:58.349Z,33.44
2023-02-16T16:37:02.836Z,30.82
2023-02-16T16:42:17.839Z,32.46
2023-02-16T16:47:37.956Z,34.21
2023-02-16T16:52:43.074Z,32.79
2023-02-16T16:57:46.170Z,32.60
2023-02-16T17:02:48.242Z,33.45
2023-02-16T17:07:51.948Z,35.51
2023-02-16T17:12:56.702Z,35.68
2023-02-16T17:17:59.304Z,35.55
2023-02-16T17:23:05.036Z,35.52
2023-02-16T17:28:08.364Z,36.90
2023-02-16T17:33:10.491Z,38.37
2023-02-16T17:38:18.597Z,39.34
2023-02-16T17:43:24.104Z,40.59
2023-02-16T17:48:29.501Z,41.40
2023-02-16T17:53:31.472Z,42.18
2023-02-16T17:58:33.399Z,42.30
2023-02-16T18:03:35.424Z,43.23
2023-02-16T18:08:37.396Z,43.25
2023-02-16T18:13:39.556Z,42.90
2023-02-16T18:18:42.047Z,42.76
2023-02-16T18:23:44.183Z,42.73
2023-02-16T18:28:46.376Z,42.87
2023-02-16T18:33:49.025Z,41.88
2023-02-16T18:38:51.605Z,41.58
2023-02-16T18:43:53.652Z,41.72
2023-02-16T18:48:55.776Z,41.24
2023-02-16T18:53:57.887Z,41.68
2023-02-16T18:58:59.778Z,41.81
2023-02-16T19:04:02.459Z,41.91
2023-02-16T19:09:05.061Z,42.23
2023-02-16T19:14:09.170Z,42.35
2023-02-16T19:19:11.169Z,42.74
2023-02-16T19:24:13.279Z,43.06
2023-02-16T19:29:15.370Z,43.97
2023-02-16T19:34:17.470Z,43.75
2023-02-16T19:39:19.503Z,43.83
2023-02-16T19:44:21.519Z,44.19
2023-02-16T19:49:23.463Z,44.25
2023-02-16T19:54:25.418Z,44.34
2023-02-16T19:59:27.479Z,44.26
2023-02-16T20:04:29.626Z,44.19
2023-02-16T20:09:31.619Z,44.24
2023-02-16T20:14:33.984Z,44.24
2023-02-16T20:19:36.023Z,44.14
2023-02-16T20:24:39.027Z,44.41
2023-02-16T20:29:41.095Z,44.54
2023-02-16T20:34:44.174Z,44.46
2023-02-16T20:39:47.651Z,44.29
2023-02-16T20:44:49.913Z,44.11
2023-02-16T20:49:51.994Z,43.99
2023-02-16T20:54:53.878Z,43.58
2023-02-16T20:59:55.970Z,43.36
2023-02-16T21:04:58.058Z,43.61
2023-02-16T21:10:01.528Z,42.95
2023-02-16T21:15:05.005Z,43.56
2023-02-16T21:20:07.680Z,43.41
2023-02-16T21:25:09.784Z,43.57
2023-02-16T21:30:12.473Z,43.77
2023-02-16T21:35:14.581Z,42.82
2023-02-16T21:40:35.153Z,42.37
2023-02-16T21:45:38.435Z,42.41
2023-02-16T21:50:41.944Z,42.18
2023-02-16T21:56:02.601Z,41.55
2023-02-16T22:01:04.898Z,41.07
2023-02-16T22:06:08.532Z,41.01
2023-02-16T22:11:12.423Z,40.49
2023-02-16T22:16:17.846Z,40.68
2023-02-16T22:21:19.850Z,41.07
2023-02-16T22:26:25.288Z,41.76
2023-02-16T22:31:27.879Z,42.63
2023-02-16T22:36:30.204Z,42.94
2023-02-16T22:41:32.765Z,43.28
2023-02-16T22:46:35.051Z,43.94
2023-02-16T22:51:37.716Z,44.13
2023-02-16T22:56:40.419Z,44.64
2023-02-16T23:01:42.733Z,45.01
2023-02-16T23:06:45.360Z,45.44
2023-02-16T23:11:48.303Z,45.55
2023-02-16T23:16:52.775Z,45.91
2023-02-16T23:21:55.142Z,46.47
2023-02-16T23:26:57.870Z,46.60
2023-02-16T23:31:59.885Z,47.83
2023-02-16T23:37:01.888Z,48.72
2023-02-16T23:42:04.017Z,48.85
2023-02-16T23:47:06.134Z,49.58
2023-02-16T23:52:08.160Z,49.63
2023-02-16T23:57:10.398Z,49.67
